Mount Philo, Vermont
Current Conditions -  °F | °C
As of 10:54 PM on Wednesday 22 Oct 2014 (Local Time) from KBTV Reporting Station
Overcast Overcast  
Wind Chill: 43°   Ceiling: 3600
Heat Index: 49°   Visibility: 10mi
Dew Point: 38°   Wind: 15mph
Humidity: 66%   Direction: 360°N
Pressure: 30.08"   Gusts: 23mph
Location:  44.2438°N, 73.1915°W
Report Text: KBTV 230254Z 36013G20KT 10SM OVC036 09/03 A3008 RMK AO2 SLP189 60000 T00940033 58014
Loading
Personal Weather Stations






























Interactive Weather Map
Tropical Storm Tracking
New forecast layout! Learn more

10-Day Weather Forecast

Advertisements
Track Severe Weather on mobile